Latest Weather Observations for Mount Magnet Airport

IDW60801

Issued at 4:05 am WST Thursday 27 November 2014 (issued every 30 minutes, with the page automatically refreshed every 10 minutes)

About weather observations | Map of weather stations | Latest weather observations for WA | Other Formats
Station Details ID: 007600 Name: MOUNT MAGNET AERO Lat: -28.12 Lon: 117.84 Height: 407.0 m
Data from the previous 72 hours. | See also: Recent months at Mount Magnet Airport
Date/Time
WST
Temp
°C
App
Temp
°C
Dew
Point
Rel
Hum
%
Delta-T
°C
Wind Press
QNH
hPa
Press
MSL
hPa
Rain
since 9 am
mm
Dir
 
Spd
km/h
Gust
km/h
Spd
kts
Gust
kts
27/04:00am 17.6 17.0 14.5 82 1.8 ESE 11 13 6 7 1012.4 1010.1 3.0
27/03:30am 17.8 17.7 14.9 83 1.7 SE 9 13 5 7 1012.1 1009.8 3.0
27/03:00am 18.6 18.6 14.3 76 2.5 ESE 7 11 4 6 1012.0 1009.7 3.0
27/02:30am 18.9 19.1 14.2 74 2.8 E 6 9 3 5 1011.8 1009.4 3.0
27/02:00am 19.1 19.1 14.1 73 2.9 NE 7 11 4 6 1011.7 1009.3 3.0
27/01:30am 19.3 18.6 14.3 73 2.9 N 11 17 6 9 1012.1 1009.8 3.0
27/01:00am 19.4 18.2 14.0 71 3.2 NNE 13 15 7 8 1011.9 1009.5 3.0
27/12:30am 20.1 18.8 13.8 67 3.7 NNE 13 19 7 10 1012.0 1009.7 3.0
27/12:00am 20.9 19.5 13.4 62 4.4 NNE 13 22 7 12 1012.4 1010.1 3.0
 
Date/Time
WST
Temp
°C
App
Temp
°C
Dew
Point
Rel
Hum
%
Delta-T
°C
Wind Press
QNH
hPa
Press
MSL
hPa
Rain
since 9 am
mm
Dir
 
Spd
km/h
Gust
km/h
Spd
kts
Gust
kts
26/11:30pm 21.8 19.1 12.9 57 5.2 NE 19 28 10 15 1011.9 1009.5 3.0
26/11:00pm 21.6 17.8 13.5 60 4.8 N 26 33 14 18 1012.6 1010.3 3.0
26/10:40pm 21.6 16.6 13.5 60 4.8 E 32 46 17 25 1011.6 1009.2 3.0
26/10:30pm 20.7 18.2 14.1 66 3.9 E 20 28 11 15 1013.3 1011.0 3.0
26/10:27pm 20.8 18.4 13.7 64 4.2 E 19 22 10 12 1014.1 1011.7 3.0
26/10:00pm 22.9 20.7 12.2 51 6.2 N 15 24 8 13 1016.2 1013.9 3.0
26/09:48pm 22.5 20.2 13.0 55 5.6 NW 17 26 9 14 1015.6 1013.3 3.0
26/09:30pm 21.2 13.3 12.6 58 5.0 ENE 46 57 25 31 1013.7 1011.4 2.8
26/09:21pm 20.4 13.2 13.1 63 4.2 ENE 43 50 23 27 1014.4 1012.1 2.6
26/09:00pm 20.8 15.8 13.3 62 4.4 N 32 41 17 22 1016.2 1013.9 1.8
26/08:30pm 21.3 17.8 13.5 61 4.6 N 24 35 13 19 1015.5 1013.2 1.0
26/08:00pm 21.4 16.3 13.8 62 4.5 NW 33 43 18 23 1015.6 1013.3 0.6
26/07:30pm 19.9 15.7 14.7 72 3.1 NW 30 41 16 22 1015.1 1012.8 0.4
26/07:00pm 20.1 14.1 14.5 70 3.3 WNW 39 50 21 27 1014.6 1012.3 0.4
26/06:43pm 20.5 15.9 14.6 69 3.5 WNW 32 52 17 28 1014.4 1012.1 0.4
26/06:30pm 20.1 16.1 15.3 74 2.9 WNW 30 43 16 23 1014.5 1012.2 0.2
26/06:01pm 23.6 17.1 12.9 51 6.3 W 39 57 21 31 1013.3 1011.0 0.0
26/06:00pm 23.7 16.9 13.0 51 6.3 W 41 57 22 31 1013.3 1011.0 0.0
26/05:30pm 27.1 21.1 10.7 35 9.4 W 33 44 18 24 1012.3 1010.0 0.0
26/05:19pm 28.4 21.1 10.1 32 10.5 W 39 44 21 24 1012.0 1009.7 0.0
26/05:00pm 29.6 26.8 8.6 27 11.8 W 13 17 7 9 1011.4 1009.0 0.0
26/04:30pm 30.2 28.0 8.0 25 12.4 NNW 9 20 5 11 1010.9 1008.6 0.0
26/04:00pm 29.5 28.7 9.6 29 11.4 WSW 4 11 2 6 1010.4 1008.1 0.0
26/03:30pm 29.0 27.0 10.2 31 10.8 SSE 11 15 6 8 1010.1 1007.8 0.0
26/03:00pm 27.7 24.3 11.3 36 9.5 SW 20 28 11 15 1011.2 1008.9 0.0
26/02:30pm 26.0 22.3 12.8 44 7.8 WSW 24 32 13 17 1012.1 1009.8 0.0
26/02:00pm 27.4 23.1 12.2 39 9.0 W 26 39 14 21 1012.8 1010.5 0.0
26/01:49pm 27.9 23.2 11.9 37 9.4 W 28 37 15 20 1012.9 1010.6 0.0
26/01:30pm 28.4 26.0 11.5 35 9.9 W 15 17 8 9 1012.7 1010.4 0.0
26/01:00pm 29.1 27.0 11.2 33 10.5 NNW 13 22 7 12 1012.4 1010.1 0.0
26/12:30pm 28.3 23.2 11.8 36 9.7 NE 30 39 16 21 1011.6 1009.2 0.0
26/12:00pm 28.4 23.3 11.9 36 9.7 N 30 41 16 22 1012.2 1009.9 0.0
26/11:30am 28.9 23.8 11.9 35 10.0 N 30 37 16 20 1012.8 1010.5 0.0
26/11:00am 28.7 24.8 12.2 36 9.8 N 24 35 13 19 1013.3 1011.0 0.0
26/10:30am 29.1 25.2 12.1 35 10.1 N 24 32 13 17 1013.4 1011.1 0.0
26/10:00am 29.1 25.7 11.2 33 10.5 NE 20 28 11 15 1013.3 1011.0 0.0
26/09:30am 27.9 24.4 11.0 35 9.8 NE 20 30 11 16 1013.3 1011.0 0.0
26/09:00am 27.3 23.0 10.9 36 9.5 ENE 24 35 13 19 1013.1 1010.8 1.0
26/08:30am 27.4 23.6 11.0 36 9.5 ENE 22 32 12 17 1013.2 1010.9 1.0
26/08:00am 26.6 22.0 11.1 38 8.9 ENE 26 37 14 20 1013.5 1011.2 0.8
26/07:30am 25.8 22.8 11.9 42 8.1 ENE 19 24 10 13 1013.4 1011.1 0.8
26/07:00am 25.0 22.0 11.9 44 7.6 ENE 19 30 10 16 1013.5 1011.2 0.8
26/06:30am 24.5 21.9 12.1 46 7.2 NE 17 22 9 12 1013.5 1011.2 0.8
26/06:00am 24.0 20.9 11.7 46 7.1 NE 19 24 10 13 1013.2 1010.9 0.8
26/05:30am 23.6 20.9 11.6 47 6.9 NE 17 22 9 12 1013.1 1010.8 0.8
26/05:00am 23.0 20.8 12.0 50 6.3 ENE 15 20 8 11 1013.0 1010.7 0.8
26/04:30am 22.3 20.9 12.3 53 5.8 NE 11 17 6 9 1012.9 1010.6 0.8
26/04:00am 22.5 20.8 12.4 52 5.8 E 13 15 7 8 1012.4 1010.1 0.8
26/03:30am 22.7 21.3 12.3 52 6.0 E 11 13 6 7 1012.3 1010.0 0.8
26/03:00am 23.0 21.7 12.6 52 6.1 E 11 15 6 8 1012.4 1010.1 0.8
26/02:30am 23.3 22.4 12.6 51 6.2 E 9 13 5 7 1012.6 1010.3 0.8
26/02:00am 23.4 22.2 12.7 51 6.3 NE 11 13 6 7 1012.4 1010.1 0.8
26/01:30am 23.8 22.1 12.4 48 6.6 NNE 13 17 7 9 1012.3 1010.0 0.8
26/01:00am 24.6 22.0 11.9 45 7.4 NE 17 20 9 11 1012.5 1010.2 0.8
26/12:30am 25.0 22.3 11.6 43 7.7 NE 17 26 9 14 1012.9 1010.6 0.8
26/12:00am 25.0 22.3 11.6 43 7.7 ENE 17 26 9 14 1013.0 1010.7 0.8
 
Date/Time
WST
Temp
°C
App
Temp
°C
Dew
Point
Rel
Hum
%
Delta-T
°C
Wind Press
QNH
hPa
Press
MSL
hPa
Rain
since 9 am
mm
Dir
 
Spd
km/h
Gust
km/h
Spd
kts
Gust
kts
25/11:30pm 25.2 22.0 11.4 42 7.9 NE 19 28 10 15 1013.1 1010.8 0.8
25/11:00pm 25.2 21.9 11.7 43 7.8 NE 20 28 11 15 1013.1 1010.8 0.8
25/10:30pm 25.6 21.9 11.4 41 8.2 ENE 22 32 12 17 1013.1 1010.8 0.8
25/10:00pm 25.4 21.3 11.6 42 8.0 ENE 24 32 13 17 1012.6 1010.3 0.8
25/09:30pm 26.7 20.8 10.4 36 9.3 ENE 32 43 17 23 1013.0 1010.7 0.8
25/09:00pm 26.1 22.9 11.4 39 8.5 NE 19 28 10 15 1014.7 1012.4 0.8
25/08:55pm 26.0 22.6 11.4 40 8.4 NE 20 28 11 15 1014.8 1012.5 0.8
25/08:32pm 25.9 18.2 11.6 40 8.3 E 43 61 23 33 1013.3 1011.0 0.8
25/08:30pm 26.0 17.7 11.4 40 8.4 ENE 46 61 25 33 1013.2 1010.9 0.8
25/08:01pm 26.0 21.3 12.1 42 8.1 ENE 28 46 15 25 1013.3 1011.0 0.8
25/08:00pm 26.0 21.3 12.1 42 8.1 ENE 28 43 15 23 1013.2 1010.9 0.8
25/07:30pm 25.7 21.0 13.2 46 7.4 ENE 30 41 16 22 1013.4 1011.1 0.8
25/07:00pm 26.0 21.9 12.8 44 7.8 ENE 26 35 14 19 1014.1 1011.7 0.8
25/06:30pm 25.4 20.6 14.5 51 6.6 E 33 52 18 28 1012.5 1010.2 0.8
25/06:24pm 24.9 20.3 15.2 54 5.9 E 33 52 18 28 1012.2 1009.9 0.8
25/06:12pm 24.2 18.9 16.2 61 5.0 E 39 46 21 25 1011.9 1009.5 0.8
25/06:00pm 25.7 22.9 13.2 46 7.4 NNE 20 33 11 18 1014.3 1012.0 0.2
25/05:56pm 25.7 23.8 15.7 54 6.2 NNE 20 30 11 16 1014.4 1012.1 0.0
25/05:30pm 27.7 20.6 13.3 41 8.6 N 43 67 23 36 1012.5 1010.2 0.0
25/05:29pm 28.1 21.5 13.6 41 8.8 N 41 65 22 35 1012.4 1010.1 0.0
25/05:25pm 30.9 23.8 10.8 29 11.8 NNE 39 50 21 27 1012.8 1010.5 0.0
25/05:23pm 32.5 26.8 9.9 25 13.1 E 30 43 16 23 1012.4 1010.1 0.0
25/05:00pm 33.6 26.2 6.8 19 14.9 E 35 48 19 26 1010.3 1008.0 0.0
25/04:51pm 33.9 26.2 7.0 19 15.0 E 37 56 20 30 1009.9 1007.6 0.0
25/04:30pm 35.0 26.9 7.1 18 15.7 ESE 39 54 21 29 1009.7 1007.3 0.0
25/04:00pm 35.1 27.2 6.4 17 16.0 E 37 54 20 29 1009.8 1007.5 0.0
25/03:30pm 34.9 26.8 7.1 18 15.6 ESE 39 59 21 32 1010.3 1008.0 0.0
25/03:05pm 35.5 28.7 7.5 18 15.9 ESE 33 52 18 28 1010.9 1008.6 0.0
25/03:00pm 34.5 27.1 6.7 18 15.5 ESE 35 48 19 26 1011.1 1008.8 0.0
25/02:30pm 34.9 28.0 7.1 18 15.6 ESE 33 54 18 29 1011.8 1009.4 0.0
25/02:00pm 34.4 27.2 7.5 19 15.2 ESE 35 50 19 27 1012.3 1010.0 0.0
25/01:47pm 35.2 27.9 7.3 18 15.8 SE 35 63 19 34 1012.3 1010.0 0.0
25/01:30pm 34.6 27.8 6.8 18 15.5 ESE 32 44 17 24 1012.5 1010.2 0.0
25/01:00pm 34.6 27.8 6.8 18 15.5 E 32 43 17 23 1013.0 1010.7 0.0
25/12:30pm 35.7 29.3 6.9 17 16.2 E 30 48 16 26 1013.3 1011.0 0.0
25/12:21pm 35.1 28.6 6.4 17 16.0 ESE 30 48 16 26 1013.3 1011.0 0.0
25/12:00pm 34.5 27.5 6.7 18 15.5 E 33 46 18 25 1013.6 1011.3 0.0
25/11:30am 32.0 25.8 6.2 20 14.1 E 28 43 15 23 1014.2 1011.9 0.0
25/11:00am 33.2 26.1 6.5 19 14.7 E 33 48 18 26 1014.6 1012.3 0.0
25/10:30am 31.7 24.7 6.0 20 14.0 E 32 46 17 25 1014.9 1012.6 0.0
25/10:00am 30.0 24.1 6.0 22 12.9 E 26 37 14 20 1015.3 1013.0 0.0
25/09:30am 29.6 24.0 5.6 22 12.8 E 24 35 13 19 1015.6 1013.3 0.0
25/09:00am 29.0 22.7 5.8 23 12.4 ENE 28 39 15 21 1015.8 1013.5 0.0
25/08:30am 28.8 21.7 5.6 23 12.3 ENE 32 46 17 25 1015.9 1013.6 0.0
25/08:00am 27.5 21.1 5.1 24 11.7 E 28 39 15 21 1015.8 1013.5 0.0
25/07:30am 26.5 19.3 4.9 25 11.2 ENE 32 43 17 23 1016.1 1013.8 0.0
25/07:00am 25.6 19.1 4.7 26 10.7 E 28 37 15 20 1015.8 1013.5 0.0
25/06:30am 24.5 18.0 4.8 28 10.1 E 28 35 15 19 1015.9 1013.6 0.0
25/06:00am 23.5 17.7 4.5 29 9.6 E 24 33 13 18 1016.0 1013.7 0.0
25/05:30am 23.2 17.7 4.2 29 9.5 E 22 30 12 16 1015.9 1013.6 0.0
25/05:00am 23.2 18.1 4.2 29 9.5 E 20 28 11 15 1015.8 1013.5 0.0
25/04:30am 23.5 18.4 4.0 28 9.8 E 20 30 11 16 1015.4 1013.1 0.0
25/04:00am 23.8 18.2 3.7 27 10.0 E 22 30 12 16 1015.2 1012.9 0.0
25/03:30am 24.0 18.5 3.9 27 10.1 E 22 28 12 15 1015.2 1012.9 0.0
25/03:00am 24.4 18.8 3.7 26 10.4 ESE 22 30 12 16 1015.0 1012.7 0.0
25/02:30am 24.7 19.6 3.9 26 10.5 E 20 30 11 16 1014.8 1012.5 0.0
25/02:00am 25.0 19.0 3.6 25 10.7 E 24 33 13 18 1014.7 1012.4 0.0
25/01:30am 25.3 20.1 3.3 24 11.0 E 20 30 11 16 1014.7 1012.4 0.0
25/01:00am 25.7 19.6 3.0 23 11.3 E 24 33 13 18 1014.6 1012.3 0.0
25/12:30am 26.1 20.6 2.1 21 11.8 E 20 33 11 18 1014.5 1012.2 0.0
25/12:00am 26.7 20.8 1.9 20 12.2 E 22 32 12 17 1014.6 1012.3 0.0
 
Date/Time
WST
Temp
°C
App
Temp
°C
Dew
Point
Rel
Hum
%
Delta-T
°C
Wind Press
QNH
hPa
Press
MSL
hPa
Rain
since 9 am
mm
Dir
 
Spd
km/h
Gust
km/h
Spd
kts
Gust
kts
24/11:30pm 27.3 21.4 1.7 19 12.6 ESE 22 33 12 18 1014.7 1012.4 0.0
24/11:00pm 27.7 22.2 2.0 19 12.8 ESE 20 30 11 16 1014.7 1012.4 0.0
24/10:30pm 28.2 22.9 3.1 20 12.7 ESE 20 26 11 14 1014.7 1012.4 0.0
24/10:00pm 28.8 23.5 2.9 19 13.1 ESE 20 30 11 16 1014.6 1012.3 0.0
24/09:30pm 29.3 23.7 3.3 19 13.3 ESE 22 30 12 16 1014.6 1012.3 0.0
24/09:00pm 29.9 24.0 3.8 19 13.5 ESE 24 33 13 18 1014.4 1012.1 0.0
24/08:30pm 30.5 24.5 3.5 18 14.0 SE 24 32 13 17 1014.2 1011.9 0.0
24/08:00pm 31.0 26.1 3.9 18 14.2 SE 19 24 10 13 1014.1 1011.7 0.0
24/07:30pm 31.6 27.7 3.6 17 14.6 SE 13 17 7 9 1014.0 1011.6 0.0
24/07:00pm 32.3 28.4 3.3 16 15.1 SE 13 15 7 8 1013.8 1011.5 0.0
24/06:30pm 32.9 29.5 3.8 16 15.4 ESE 11 17 6 9 1013.5 1011.2 0.0
24/06:00pm 33.2 29.2 3.1 15 15.7 ESE 13 17 7 9 1013.4 1011.1 0.0
24/05:30pm 34.0 28.8 3.7 15 16.1 SSE 20 28 11 15 1013.0 1010.7 0.0
24/05:00pm 33.4 29.9 3.3 15 15.8 ESE 11 22 6 12 1013.1 1010.8 0.0
24/04:30pm 33.3 29.7 3.2 15 15.8 ESE 11 19 6 10 1013.1 1010.8 0.0
24/04:00pm 34.0 29.0 3.7 15 16.1 ESE 19 24 10 13 1013.2 1010.9 0.0
24/03:30pm 34.0 30.0 2.8 14 16.3 E 13 24 7 13 1013.5 1011.2 0.0
24/03:00pm 33.1 29.5 3.0 15 15.7 SE 11 20 6 11 1013.7 1011.4 0.0
24/02:30pm 33.0 27.7 2.9 15 15.7 ESE 20 26 11 14 1014.2 1011.9 0.0
24/02:00pm 32.5 27.3 3.5 16 15.2 ESE 20 32 11 17 1014.6 1012.3 0.0
24/01:30pm 32.2 27.1 3.2 16 15.1 SE 19 22 10 12 1015.0 1012.7 0.0
24/01:00pm 32.5 26.2 3.5 16 15.2 E 26 33 14 18 1015.5 1013.2 0.0
24/12:30pm 31.2 26.0 3.3 17 14.5 ESE 20 30 11 16 1015.9 1013.6 0.0
24/12:00pm 30.7 26.1 3.7 18 14.0 ENE 17 22 9 12 1016.4 1014.2 0.0
24/11:30am 30.8 25.3 3.8 18 14.1 E 22 28 12 15 1016.9 1014.6 0.0
24/11:00am 29.2 23.7 3.9 20 13.1 E 22 37 12 20 1017.4 1015.1 0.0
24/10:30am 28.6 22.0 4.2 21 12.7 ESE 28 43 15 23 1017.9 1015.6 0.0
24/10:00am 27.7 21.5 4.1 22 12.1 E 26 37 14 20 1018.2 1015.9 0.0
24/09:30am 26.9 20.9 3.4 22 11.9 E 24 35 13 19 1018.5 1016.3 0.0
24/09:00am 25.9 19.9 3.2 23 11.4 E 24 33 13 18 1018.8 1016.6 0.0
24/08:30am 24.6 18.2 3.3 25 10.6 E 26 35 14 19 1019.1 1016.8 0.0
24/08:00am 24.1 18.1 3.4 26 10.3 ESE 24 33 13 18 1019.1 1016.8 0.0
24/07:30am 22.7 16.6 2.8 27 9.7 E 24 33 13 18 1018.9 1016.7 0.0
24/07:00am 21.3 16.1 2.6 29 9.0 ESE 19 30 10 16 1018.8 1016.6 0.0
24/06:30am 19.5 15.1 2.8 33 7.9 SE 15 20 8 11 1018.4 1016.1 0.0
24/06:00am 17.9 13.9 2.6 36 7.1 S 13 17 7 9 1018.3 1016.0 0.0
24/05:30am 17.3 13.7 2.9 38 6.7 S 11 13 6 7 1018.1 1015.8 0.0
24/05:00am 17.3 13.6 2.5 37 6.9 S 11 13 6 7 1017.7 1015.4 0.0
24/04:30am 17.7 13.6 2.1 35 7.2 S 13 15 7 8 1017.2 1014.9 0.0

Other Formats:

Comma delimited format used in spreadsheet applications
http://www.bom.gov.au/fwo/IDW60801/IDW60801.94429.axf

JavaScript Object Notation format (JSON) in row-major order
http://www.bom.gov.au/fwo/IDW60801/IDW60801.94429.json